sensor_id;sensor_type;location;lat;lon;timestamp;pressure;altitude;pressure_sealevel;temperature;humidity
55289;BME280;41154;45.394;5.734;2023-02-15T00:01:12;98263.56;;;-0.26;100.00
55289;BME280;41154;45.394;5.734;2023-02-15T00:03:39;98261.16;;;-0.20;100.00
55289;BME280;41154;45.394;5.734;2023-02-15T00:06:05;98257.31;;;-0.07;100.00
55289;BME280;41154;45.394;5.734;2023-02-15T00:08:31;98257.53;;;-0.01;100.00
55289;BME280;41154;45.394;5.734;2023-02-15T00:11:08;98253.47;;;-0.13;100.00
55289;BME280;41154;45.394;5.734;2023-02-15T00:13:36;98249.25;;;-0.06;100.00
55289;BME280;41154;45.394;5.734;2023-02-15T00:16:05;98255.66;;;-0.08;100.00
55289;BME280;41154;45.394;5.734;2023-02-15T00:18:32;98250.25;;;-0.25;100.00
55289;BME280;41154;45.394;5.734;2023-02-15T00:20:58;98249.88;;;-0.12;100.00
55289;BME280;41154;45.394;5.734;2023-02-15T00:23:24;98257.16;;;-0.24;100.00
55289;BME280;41154;45.394;5.734;2023-02-15T00:25:51;98241.72;;;-0.01;100.00
55289;BME280;41154;45.394;5.734;2023-02-15T00:28:17;98244.53;;;-0.20;100.00
55289;BME280;41154;45.394;5.734;2023-02-15T00:30:42;98252.25;;;-0.37;100.00
55289;BME280;41154;45.394;5.734;2023-02-15T00:33:08;98248.28;;;-0.23;100.00
55289;BME280;41154;45.394;5.734;2023-02-15T00:35:34;98248.06;;;-0.29;100.00
55289;BME280;41154;45.394;5.734;2023-02-15T00:37:59;98242.59;;;-0.46;100.00
55289;BME280;41154;45.394;5.734;2023-02-15T00:40:25;98246.75;;;-0.25;100.00
55289;BME280;41154;45.394;5.734;2023-02-15T00:42:51;98249.09;;;-0.22;100.00
55289;BME280;41154;45.394;5.734;2023-02-15T00:45:17;98248.66;;;-0.35;100.00
55289;BME280;41154;45.394;5.734;2023-02-15T00:47:46;98246.69;;;-0.33;100.00
55289;BME280;41154;45.394;5.734;2023-02-15T00:50:12;98248.53;;;-0.62;100.00
55289;BME280;41154;45.394;5.734;2023-02-15T00:52:38;98248.41;;;-0.60;100.00
55289;BME280;41154;45.394;5.734;2023-02-15T00:55:04;98252.94;;;-0.52;100.00
55289;BME280;41154;45.394;5.734;2023-02-15T00:57:29;98251.34;;;-0.45;100.00
55289;BME280;41154;45.394;5.734;2023-02-15T00:59:55;98254.91;;;-0.37;100.00
55289;BME280;41154;45.394;5.734;2023-02-15T01:02:22;98258.72;;;-0.67;100.00
55289;BME280;41154;45.394;5.734;2023-02-15T01:04:47;98247.88;;;-0.92;100.00
55289;BME280;41154;45.394;5.734;2023-02-15T01:07:15;98254.44;;;-1.05;100.00
55289;BME280;41154;45.394;5.734;2023-02-15T01:09:40;98258.03;;;-1.06;100.00
55289;BME280;41154;45.394;5.734;2023-02-15T01:12:06;98250.16;;;-1.06;100.00
55289;BME280;41154;45.394;5.734;2023-02-15T01:14:35;98255.94;;;-1.03;100.00
55289;BME280;41154;45.394;5.734;2023-02-15T01:17:00;98246.88;;;-0.63;100.00
55289;BME280;41154;45.394;5.734;2023-02-15T01:19:26;98257.09;;;-0.78;100.00
55289;BME280;41154;45.394;5.734;2023-02-15T01:21:52;98255.72;;;-0.82;100.00
55289;BME280;41154;45.394;5.734;2023-02-15T01:24:17;98266.66;;;-1.14;100.00
55289;BME280;41154;45.394;5.734;2023-02-15T01:26:43;98256.84;;;-0.84;100.00
55289;BME280;41154;45.394;5.734;2023-02-15T01:29:09;98258.41;;;-0.92;100.00
55289;BME280;41154;45.394;5.734;2023-02-15T01:31:35;98263.97;;;-0.95;100.00
55289;BME280;41154;45.394;5.734;2023-02-15T01:34:05;98259.56;;;-1.04;100.00
55289;BME280;41154;45.394;5.734;2023-02-15T01:36:35;98259.47;;;-0.84;100.00
55289;BME280;41154;45.394;5.734;2023-02-15T01:39:01;98262.00;;;-0.93;100.00
55289;BME280;41154;45.394;5.734;2023-02-15T01:41:27;98264.22;;;-0.88;100.00
55289;BME280;41154;45.394;5.734;2023-02-15T01:43:55;98266.69;;;-0.86;100.00
55289;BME280;41154;45.394;5.734;2023-02-15T01:49:00;98275.22;;;-1.02;100.00
55289;BME280;41154;45.394;5.734;2023-02-15T01:51:31;98269.88;;;-1.11;100.00
55289;BME280;41154;45.394;5.734;2023-02-15T01:54:31;98270.97;;;-1.13;100.00
55289;BME280;41154;45.394;5.734;2023-02-15T01:57:05;98274.31;;;-1.21;100.00
55289;BME280;41154;45.394;5.734;2023-02-15T01:59:35;98276.72;;;-1.00;100.00
55289;BME280;41154;45.394;5.734;2023-02-15T02:02:05;98264.31;;;-1.07;100.00
55289;BME280;41154;45.394;5.734;2023-02-15T02:07:02;98267.38;;;-1.12;100.00
55289;BME280;41154;45.394;5.734;2023-02-15T02:09:32;98269.63;;;-1.27;100.00
55289;BME280;41154;45.394;5.734;2023-02-15T02:11:58;98269.56;;;-1.07;100.00
55289;BME280;41154;45.394;5.734;2023-02-15T02:14:24;98272.78;;;-1.23;100.00
55289;BME280;41154;45.394;5.734;2023-02-15T02:31:27;98274.50;;;-1.32;100.00
55289;BME280;41154;45.394;5.734;2023-02-15T02:36:48;98274.88;;;-1.27;100.00
55289;BME280;41154;45.394;5.734;2023-02-15T02:39:44;98268.19;;;-1.12;100.00
55289;BME280;41154;45.394;5.734;2023-02-15T02:44:49;98273.34;;;-1.20;100.00
55289;BME280;41154;45.394;5.734;2023-02-15T02:47:32;98276.69;;;-1.28;100.00
55289;BME280;41154;45.394;5.734;2023-02-15T02:50:05;98276.03;;;-1.39;100.00
55289;BME280;41154;45.394;5.734;2023-02-15T02:52:41;98280.91;;;-1.45;100.00
55289;BME280;41154;45.394;5.734;2023-02-15T03:00:35;98272.53;;;-1.30;100.00
55289;BME280;41154;45.394;5.734;2023-02-15T03:03:14;98274.94;;;-1.56;100.00
55289;BME280;41154;45.394;5.734;2023-02-15T03:05:45;98268.47;;;-1.62;100.00
55289;BME280;41154;45.394;5.734;2023-02-15T03:08:16;98264.97;;;-1.53;100.00
55289;BME280;41154;45.394;5.734;2023-02-15T03:10:49;98273.56;;;-1.51;100.00
55289;BME280;41154;45.394;5.734;2023-02-15T03:13:19;98273.72;;;-1.52;100.00
55289;BME280;41154;45.394;5.734;2023-02-15T03:15:48;98270.97;;;-1.60;100.00
55289;BME280;41154;45.394;5.734;2023-02-15T03:18:39;98266.75;;;-1.43;100.00
55289;BME280;41154;45.394;5.734;2023-02-15T03:21:08;98266.50;;;-1.50;100.00
55289;BME280;41154;45.394;5.734;2023-02-15T03:24:03;98259.00;;;-1.45;100.00
55289;BME280;41154;45.394;5.734;2023-02-15T03:26:36;98265.09;;;-1.45;100.00
55289;BME280;41154;45.394;5.734;2023-02-15T03:29:09;98262.19;;;-1.41;100.00
55289;BME280;41154;45.394;5.734;2023-02-15T03:31:42;98262.75;;;-1.57;100.00
55289;BME280;41154;45.394;5.734;2023-02-15T03:34:13;98257.66;;;-1.59;100.00
55289;BME280;41154;45.394;5.734;2023-02-15T03:36:53;98252.94;;;-1.55;100.00
55289;BME280;41154;45.394;5.734;2023-02-15T03:42:17;98253.75;;;-1.55;100.00
55289;BME280;41154;45.394;5.734;2023-02-15T03:45:02;98262.09;;;-1.59;100.00
55289;BME280;41154;45.394;5.734;2023-02-15T03:47:46;98260.56;;;-1.72;100.00
55289;BME280;41154;45.394;5.734;2023-02-15T03:50:19;98255.72;;;-1.76;100.00
55289;BME280;41154;45.394;5.734;2023-02-15T03:53:09;98252.44;;;-1.78;100.00
55289;BME280;41154;45.394;5.734;2023-02-15T03:55:36;98257.53;;;-1.67;100.00
55289;BME280;41154;45.394;5.734;2023-02-15T03:58:03;98260.59;;;-1.62;100.00
55289;BME280;41154;45.394;5.734;2023-02-15T04:03:17;98256.97;;;-1.71;100.00
55289;BME280;41154;45.394;5.734;2023-02-15T04:05:45;98260.28;;;-1.69;100.00
55289;BME280;41154;45.394;5.734;2023-02-15T04:08:12;98256.44;;;-1.65;100.00
55289;BME280;41154;45.394;5.734;2023-02-15T04:10:38;98260.59;;;-1.62;100.00
55289;BME280;41154;45.394;5.734;2023-02-15T04:13:30;98255.34;;;-1.82;100.00
55289;BME280;41154;45.394;5.734;2023-02-15T04:15:56;98265.56;;;-1.78;100.00
55289;BME280;41154;45.394;5.734;2023-02-15T04:18:38;98260.84;;;-1.75;100.00
55289;BME280;41154;45.394;5.734;2023-02-15T04:21:25;98265.31;;;-1.85;100.00
55289;BME280;41154;45.394;5.734;2023-02-15T04:24:10;98260.03;;;-1.95;100.00
55289;BME280;41154;45.394;5.734;2023-02-15T04:26:55;98261.59;;;-2.12;100.00
55289;BME280;41154;45.394;5.734;2023-02-15T04:29:24;98261.44;;;-2.10;100.00
55289;BME280;41154;45.394;5.734;2023-02-15T04:31:51;98256.16;;;-2.10;100.00
55289;BME280;41154;45.394;5.734;2023-02-15T04:34:18;98252.16;;;-1.95;100.00
55289;BME280;41154;45.394;5.734;2023-02-15T04:36:44;98255.75;;;-2.06;100.00
55289;BME280;41154;45.394;5.734;2023-02-15T04:39:12;98258.66;;;-2.09;100.00
55289;BME280;41154;45.394;5.734;2023-02-15T04:41:38;98255.06;;;-1.98;100.00
55289;BME280;41154;45.394;5.734;2023-02-15T04:44:04;98250.38;;;-2.14;100.00
55289;BME280;41154;45.394;5.734;2023-02-15T04:46:30;98251.34;;;-2.05;100.00
55289;BME280;41154;45.394;5.734;2023-02-15T04:48:56;98248.59;;;-2.13;100.00
55289;BME280;41154;45.394;5.734;2023-02-15T04:51:22;98238.19;;;-2.05;100.00
55289;BME280;41154;45.394;5.734;2023-02-15T04:53:48;98239.72;;;-1.93;100.00
55289;BME280;41154;45.394;5.734;2023-02-15T04:56:14;98234.59;;;-1.94;100.00
55289;BME280;41154;45.394;5.734;2023-02-15T04:58:40;98230.84;;;-1.92;100.00
55289;BME280;41154;45.394;5.734;2023-02-15T05:01:07;98238.47;;;-2.08;100.00
55289;BME280;41154;45.394;5.734;2023-02-15T05:03:34;98236.25;;;-2.13;100.00
55289;BME280;41154;45.394;5.734;2023-02-15T05:06:01;98233.38;;;-2.20;100.00
55289;BME280;41154;45.394;5.734;2023-02-15T05:08:27;98231.16;;;-2.14;100.00
55289;BME280;41154;45.394;5.734;2023-02-15T05:10:52;98227.97;;;-2.08;100.00
55289;BME280;41154;45.394;5.734;2023-02-15T05:13:18;98223.38;;;-2.06;100.00
55289;BME280;41154;45.394;5.734;2023-02-15T05:15:51;98219.38;;;-2.10;100.00
55289;BME280;41154;45.394;5.734;2023-02-15T05:18:19;98213.56;;;-2.24;100.00
55289;BME280;41154;45.394;5.734;2023-02-15T05:20:45;98206.09;;;-2.28;100.00
55289;BME280;41154;45.394;5.734;2023-02-15T05:23:11;98212.75;;;-2.24;100.00
55289;BME280;41154;45.394;5.734;2023-02-15T05:25:37;98210.13;;;-2.14;100.00
55289;BME280;41154;45.394;5.734;2023-02-15T05:28:23;98210.00;;;-2.23;100.00
55289;BME280;41154;45.394;5.734;2023-02-15T05:31:02;98208.34;;;-2.33;100.00
55289;BME280;41154;45.394;5.734;2023-02-15T05:33:28;98208.19;;;-2.32;100.00
55289;BME280;41154;45.394;5.734;2023-02-15T05:35:54;98213.84;;;-2.27;100.00
55289;BME280;41154;45.394;5.734;2023-02-15T05:38:20;98218.00;;;-2.14;100.00
55289;BME280;41154;45.394;5.734;2023-02-15T05:40:45;98221.47;;;-2.24;100.00
55289;BME280;41154;45.394;5.734;2023-02-15T05:43:11;98224.38;;;-2.27;100.00
55289;BME280;41154;45.394;5.734;2023-02-15T05:45:38;98226.84;;;-2.25;100.00
55289;BME280;41154;45.394;5.734;2023-02-15T05:48:04;98228.22;;;-2.50;100.00
55289;BME280;41154;45.394;5.734;2023-02-15T05:50:30;98234.31;;;-2.60;100.00
55289;BME280;41154;45.394;5.734;2023-02-15T05:52:59;98239.56;;;-2.50;100.00
55289;BME280;41154;45.394;5.734;2023-02-15T05:55:25;98240.78;;;-2.54;100.00
55289;BME280;41154;45.394;5.734;2023-02-15T05:57:51;98234.31;;;-2.50;100.00
55289;BME280;41154;45.394;5.734;2023-02-15T06:00:18;98236.25;;;-2.42;100.00
55289;BME280;41154;45.394;5.734;2023-02-15T06:02:44;98236.56;;;-2.26;100.00
55289;BME280;41154;45.394;5.734;2023-02-15T06:05:09;98228.78;;;-2.08;100.00
55289;BME280;41154;45.394;5.734;2023-02-15T06:07:35;98238.19;;;-2.05;100.00
55289;BME280;41154;45.394;5.734;2023-02-15T06:10:01;98239.84;;;-2.24;100.00
55289;BME280;41154;45.394;5.734;2023-02-15T06:12:27;98255.47;;;-2.42;100.00
55289;BME280;41154;45.394;5.734;2023-02-15T06:14:52;98252.63;;;-2.79;100.00
55289;BME280;41154;45.394;5.734;2023-02-15T06:17:18;98244.47;;;-2.76;100.00
55289;BME280;41154;45.394;5.734;2023-02-15T06:19:44;98248.38;;;-2.80;100.00
55289;BME280;41154;45.394;5.734;2023-02-15T06:22:09;98250.84;;;-2.79;100.00
55289;BME280;41154;45.394;5.734;2023-02-15T06:24:35;98256.28;;;-2.61;100.00
55289;BME280;41154;45.394;5.734;2023-02-15T06:27:01;98260.84;;;-2.63;100.00
55289;BME280;41154;45.394;5.734;2023-02-15T06:29:26;98270.53;;;-2.54;100.00
55289;BME280;41154;45.394;5.734;2023-02-15T06:31:52;98282.81;;;-2.54;100.00
55289;BME280;41154;45.394;5.734;2023-02-15T06:34:19;98283.09;;;-2.57;100.00
55289;BME280;41154;45.394;5.734;2023-02-15T06:36:44;98288.81;;;-2.42;100.00
55289;BME280;41154;45.394;5.734;2023-02-15T06:39:10;98282.41;;;-2.49;100.00
55289;BME280;41154;45.394;5.734;2023-02-15T06:41:36;98283.28;;;-2.49;100.00
55289;BME280;41154;45.394;5.734;2023-02-15T06:44:02;98287.53;;;-2.48;100.00
55289;BME280;41154;45.394;5.734;2023-02-15T06:46:29;98286.19;;;-2.42;100.00
55289;BME280;41154;45.394;5.734;2023-02-15T06:48:55;98282.16;;;-2.46;100.00
55289;BME280;41154;45.394;5.734;2023-02-15T06:51:20;98286.72;;;-2.39;100.00
55289;BME280;41154;45.394;5.734;2023-02-15T06:53:46;98278.84;;;-2.39;100.00
55289;BME280;41154;45.394;5.734;2023-02-15T06:56:12;98292.13;;;-2.40;100.00
55289;BME280;41154;45.394;5.734;2023-02-15T06:58:39;98283.84;;;-2.26;100.00
55289;BME280;41154;45.394;5.734;2023-02-15T07:01:06;98274.16;;;-2.25;100.00
55289;BME280;41154;45.394;5.734;2023-02-15T07:03:33;98281.31;;;-2.47;100.00
55289;BME280;41154;45.394;5.734;2023-02-15T07:06:01;98275.53;;;-2.50;100.00
55289;BME280;41154;45.394;5.734;2023-02-15T07:08:27;98278.00;;;-2.49;100.00
55289;BME280;41154;45.394;5.734;2023-02-15T07:10:55;98276.75;;;-2.45;100.00
55289;BME280;41154;45.394;5.734;2023-02-15T07:13:41;98278.97;;;-2.60;100.00
55289;BME280;41154;45.394;5.734;2023-02-15T07:16:08;98272.91;;;-2.41;100.00
55289;BME280;41154;45.394;5.734;2023-02-15T07:18:35;98275.56;;;-2.21;100.00
55289;BME280;41154;45.394;5.734;2023-02-15T07:21:01;98282.19;;;-2.27;100.00
55289;BME280;41154;45.394;5.734;2023-02-15T07:23:27;98282.72;;;-2.23;100.00
55289;BME280;41154;45.394;5.734;2023-02-15T07:25:59;98285.78;;;-2.28;100.00
55289;BME280;41154;45.394;5.734;2023-02-15T07:28:25;98283.72;;;-2.14;100.00
55289;BME280;41154;45.394;5.734;2023-02-15T07:30:51;98282.59;;;-2.31;100.00
55289;BME280;41154;45.394;5.734;2023-02-15T07:33:17;98281.09;;;-2.24;100.00
55289;BME280;41154;45.394;5.734;2023-02-15T07:35:54;98283.59;;;-2.23;100.00
55289;BME280;41154;45.394;5.734;2023-02-15T07:38:21;98270.03;;;-2.18;100.00
55289;BME280;41154;45.394;5.734;2023-02-15T07:40:47;98279.28;;;-2.04;100.00
55289;BME280;41154;45.394;5.734;2023-02-15T07:43:13;98267.25;;;-2.07;100.00
55289;BME280;41154;45.394;5.734;2023-02-15T07:45:39;98279.00;;;-2.21;100.00
55289;BME280;41154;45.394;5.734;2023-02-15T07:48:06;98269.03;;;-2.07;100.00
55289;BME280;41154;45.394;5.734;2023-02-15T07:50:33;98271.38;;;-2.04;100.00
55289;BME280;41154;45.394;5.734;2023-02-15T07:53:01;98282.47;;;-2.10;100.00
55289;BME280;41154;45.394;5.734;2023-02-15T07:55:27;98275.00;;;-2.15;100.00
55289;BME280;41154;45.394;5.734;2023-02-15T07:57:54;98275.41;;;-2.00;100.00
55289;BME280;41154;45.394;5.734;2023-02-15T08:00:21;98268.09;;;-2.06;100.00
55289;BME280;41154;45.394;5.734;2023-02-15T08:02:55;98267.25;;;-1.97;100.00
55289;BME280;41154;45.394;5.734;2023-02-15T08:05:42;98254.50;;;-1.92;100.00
55289;BME280;41154;45.394;5.734;2023-02-15T08:08:10;98262.28;;;-2.10;100.00
55289;BME280;41154;45.394;5.734;2023-02-15T08:11:05;98249.97;;;-1.90;100.00
55289;BME280;41154;45.394;5.734;2023-02-15T08:16:26;98247.59;;;-1.83;100.00
55289;BME280;41154;45.394;5.734;2023-02-15T08:18:52;98253.00;;;-2.04;100.00
55289;BME280;41154;45.394;5.734;2023-02-15T08:21:19;98244.25;;;-1.95;100.00
55289;BME280;41154;45.394;5.734;2023-02-15T08:23:46;98242.59;;;-1.76;100.00
55289;BME280;41154;45.394;5.734;2023-02-15T08:26:12;98240.38;;;-1.71;100.00
55289;BME280;41154;45.394;5.734;2023-02-15T08:28:40;98250.47;;;-1.76;100.00
55289;BME280;41154;45.394;5.734;2023-02-15T08:31:11;98256.06;;;-1.32;100.00
55289;BME280;41154;45.394;5.734;2023-02-15T08:33:40;98240.72;;;0.71;100.00
55289;BME280;41154;45.394;5.734;2023-02-15T08:36:12;98236.56;;;4.11;100.00
55289;BME280;41154;45.394;5.734;2023-02-15T08:38:41;98237.00;;;4.91;100.00
55289;BME280;41154;45.394;5.734;2023-02-15T08:41:19;98246.69;;;5.28;100.00
55289;BME280;41154;45.394;5.734;2023-02-15T08:43:47;98242.19;;;7.43;91.29
55289;BME280;41154;45.394;5.734;2023-02-15T08:46:15;98239.19;;;7.60;86.86
55289;BME280;41154;45.394;5.734;2023-02-15T08:48:42;98237.22;;;8.08;83.55
55289;BME280;41154;45.394;5.734;2023-02-15T08:51:19;98232.34;;;8.86;80.48
55289;BME280;41154;45.394;5.734;2023-02-15T08:53:48;98236.09;;;7.63;87.53
55289;BME280;41154;45.394;5.734;2023-02-15T08:56:15;98221.75;;;9.24;81.08
55289;BME280;41154;45.394;5.734;2023-02-15T08:58:41;98215.50;;;8.65;82.81
55289;BME280;41154;45.394;5.734;2023-02-15T09:01:18;98221.25;;;8.55;85.03
55289;BME280;41154;45.394;5.734;2023-02-15T09:03:46;98217.31;;;8.11;84.44
55289;BME280;41154;45.394;5.734;2023-02-15T09:06:13;98224.56;;;8.57;84.36
55289;BME280;41154;45.394;5.734;2023-02-15T09:08:39;98211.69;;;10.29;80.49
55289;BME280;41154;45.394;5.734;2023-02-15T09:11:11;98217.31;;;10.96;73.09
55289;BME280;41154;45.394;5.734;2023-02-15T09:13:38;98199.06;;;10.61;75.31
55289;BME280;41154;45.394;5.734;2023-02-15T09:16:08;98206.22;;;8.41;83.15
55289;BME280;41154;45.394;5.734;2023-02-15T09:18:37;98199.06;;;9.27;83.21
55289;BME280;41154;45.394;5.734;2023-02-15T09:21:11;98206.19;;;7.81;86.87
55289;BME280;41154;45.394;5.734;2023-02-15T09:23:43;98191.00;;;8.35;89.89
55289;BME280;41154;45.394;5.734;2023-02-15T09:26:15;98198.16;;;8.94;86.46
55289;BME280;41154;45.394;5.734;2023-02-15T09:28:41;98204.56;;;8.60;87.80
55289;BME280;41154;45.394;5.734;2023-02-15T09:31:20;98196.34;;;8.75;87.18
55289;BME280;41154;45.394;5.734;2023-02-15T09:33:47;98187.91;;;8.04;90.59
55289;BME280;41154;45.394;5.734;2023-02-15T09:36:34;98195.28;;;7.96;89.75
55289;BME280;41154;45.394;5.734;2023-02-15T09:39:15;98194.97;;;7.37;95.52
55289;BME280;41154;45.394;5.734;2023-02-15T10:02:16;98189.94;;;7.14;100.00
55289;BME280;41154;45.394;5.734;2023-02-15T10:13:24;98191.19;;;6.76;100.00
55289;BME280;41154;45.394;5.734;2023-02-15T10:16:10;98182.41;;;6.89;100.00
55289;BME280;41154;45.394;5.734;2023-02-15T10:18:51;98182.25;;;7.52;100.00
55289;BME280;41154;45.394;5.734;2023-02-15T10:24:19;98178.31;;;7.35;100.00
55289;BME280;41154;45.394;5.734;2023-02-15T10:26:49;98176.16;;;7.72;100.00
55289;BME280;41154;45.394;5.734;2023-02-15T10:29:34;98175.78;;;7.88;100.00
55289;BME280;41154;45.394;5.734;2023-02-15T10:38:04;98167.16;;;8.26;99.54
55289;BME280;41154;45.394;5.734;2023-02-15T10:51:02;98157.22;;;8.74;92.42
55289;BME280;41154;45.394;5.734;2023-02-15T10:59:40;98155.13;;;8.89;91.52
55289;BME280;41154;45.394;5.734;2023-02-15T11:01:59;98152.19;;;9.11;92.04
55289;BME280;41154;45.394;5.734;2023-02-15T11:04:44;98148.91;;;9.09;91.99
55289;BME280;41154;45.394;5.734;2023-02-15T11:07:16;98151.63;;;9.41;91.65
55289;BME280;41154;45.394;5.734;2023-02-15T11:09:50;98147.84;;;9.55;89.72
55289;BME280;41154;45.394;5.734;2023-02-15T11:12:24;98149.13;;;9.52;87.39
55289;BME280;41154;45.394;5.734;2023-02-15T11:17:27;98148.53;;;10.07;84.36
55289;BME280;41154;45.394;5.734;2023-02-15T11:20:02;98146.41;;;9.91;83.04
55289;BME280;41154;45.394;5.734;2023-02-15T11:22:32;98144.31;;;10.18;83.75
55289;BME280;41154;45.394;5.734;2023-02-15T11:25:02;98143.94;;;10.15;82.92
55289;BME280;41154;45.394;5.734;2023-02-15T11:27:31;98138.22;;;10.30;82.06
55289;BME280;41154;45.394;5.734;2023-02-15T11:30:09;98140.19;;;10.22;81.64
55289;BME280;41154;45.394;5.734;2023-02-15T11:32:57;98139.84;;;10.37;81.39
55289;BME280;41154;45.394;5.734;2023-02-15T11:35:37;98133.78;;;10.49;79.12
55289;BME280;41154;45.394;5.734;2023-02-15T11:38:14;98135.34;;;10.31;79.79
55289;BME280;41154;45.394;5.734;2023-02-15T11:40:48;98129.66;;;10.21;79.75
55289;BME280;41154;45.394;5.734;2023-02-15T11:46:03;98127.47;;;10.61;80.49
55289;BME280;41154;45.394;5.734;2023-02-15T11:48:30;98115.00;;;10.86;77.21
55289;BME280;41154;45.394;5.734;2023-02-15T11:50:57;98119.78;;;10.65;78.30
55289;BME280;41154;45.394;5.734;2023-02-15T11:53:23;98113.16;;;10.68;78.84
55289;BME280;41154;45.394;5.734;2023-02-15T11:55:54;98119.00;;;10.58;78.14
55289;BME280;41154;45.394;5.734;2023-02-15T12:01:38;98117.97;;;10.59;81.13
55289;BME280;41154;45.394;5.734;2023-02-15T12:04:38;98107.59;;;11.18;80.32
55289;BME280;41154;45.394;5.734;2023-02-15T12:07:25;98112.81;;;11.43;75.20
55289;BME280;41154;45.394;5.734;2023-02-15T12:10:00;98104.53;;;11.87;75.27
55289;BME280;41154;45.394;5.734;2023-02-15T12:12:35;98112.81;;;11.74;75.11
55289;BME280;41154;45.394;5.734;2023-02-15T12:15:05;98110.22;;;11.67;73.86
55289;BME280;41154;45.394;5.734;2023-02-15T12:20:07;98102.41;;;11.77;71.91
55289;BME280;41154;45.394;5.734;2023-02-15T12:23:39;98099.47;;;11.67;72.12
55289;BME280;41154;45.394;5.734;2023-02-15T12:25:50;98100.59;;;11.47;72.94
55289;BME280;41154;45.394;5.734;2023-02-15T12:31:40;98089.50;;;11.56;71.19
55289;BME280;41154;45.394;5.734;2023-02-15T12:34:12;98085.19;;;11.55;72.08
55289;BME280;41154;45.394;5.734;2023-02-15T12:36:51;98087.16;;;11.59;72.33
55289;BME280;41154;45.394;5.734;2023-02-15T12:39:32;98088.47;;;11.99;74.07
55289;BME280;41154;45.394;5.734;2023-02-15T12:44:33;98082.00;;;11.88;73.36
55289;BME280;41154;45.394;5.734;2023-02-15T12:49:43;98070.03;;;11.72;74.85
55289;BME280;41154;45.394;5.734;2023-02-15T12:54:42;98067.28;;;11.91;75.96
55289;BME280;41154;45.394;5.734;2023-02-15T12:59:57;98055.53;;;11.73;72.49
55289;BME280;41154;45.394;5.734;2023-02-15T13:02:47;98059.69;;;11.99;74.04
55289;BME280;41154;45.394;5.734;2023-02-15T13:08:10;98055.63;;;11.97;73.40
55289;BME280;41154;45.394;5.734;2023-02-15T13:11:07;98061.47;;;11.94;72.85
55289;BME280;41154;45.394;5.734;2023-02-15T13:13:57;98056.56;;;12.14;73.07
55289;BME280;41154;45.394;5.734;2023-02-15T13:16:32;98059.38;;;12.08;72.70
55289;BME280;41154;45.394;5.734;2023-02-15T13:19:18;98057.00;;;11.99;73.35
55289;BME280;41154;45.394;5.734;2023-02-15T13:21:47;98054.44;;;11.93;74.09
55289;BME280;41154;45.394;5.734;2023-02-15T13:24:34;98055.63;;;11.97;75.43
55289;BME280;41154;45.394;5.734;2023-02-15T13:27:04;98048.91;;;11.87;75.35
55289;BME280;41154;45.394;5.734;2023-02-15T13:29:36;98050.94;;;12.04;76.02
55289;BME280;41154;45.394;5.734;2023-02-15T13:32:29;98041.81;;;12.05;75.19
55289;BME280;41154;45.394;5.734;2023-02-15T13:35:00;98050.59;;;12.00;76.78
55289;BME280;41154;45.394;5.734;2023-02-15T13:51:49;98034.31;;;12.07;72.77
55289;BME280;41154;45.394;5.734;2023-02-15T14:02:36;98035.94;;;11.84;75.18
55289;BME280;41154;45.394;5.734;2023-02-15T14:11:04;98034.97;;;11.67;76.77
55289;BME280;41154;45.394;5.734;2023-02-15T14:19:29;98043.81;;;11.56;76.59
55289;BME280;41154;45.394;5.734;2023-02-15T14:22:44;98044.56;;;11.63;77.26
55289;BME280;41154;45.394;5.734;2023-02-15T14:28:05;98045.97;;;11.77;77.60
55289;BME280;41154;45.394;5.734;2023-02-15T14:30:38;98043.41;;;11.82;76.67
55289;BME280;41154;45.394;5.734;2023-02-15T14:33:54;98048.44;;;11.79;76.25
55289;BME280;41154;45.394;5.734;2023-02-15T14:35:58;98040.13;;;11.80;76.79
55289;BME280;41154;45.394;5.734;2023-02-15T14:44:21;98054.06;;;11.89;75.25
55289;BME280;41154;45.394;5.734;2023-02-15T14:49:32;98044.50;;;12.17;74.48
55289;BME280;41154;45.394;5.734;2023-02-15T14:52:04;98058.41;;;12.02;74.83
55289;BME280;41154;45.394;5.734;2023-02-15T14:59:53;98054.41;;;12.40;73.47
55289;BME280;41154;45.394;5.734;2023-02-15T15:02:28;98052.66;;;12.57;74.04
55289;BME280;41154;45.394;5.734;2023-02-15T15:07:58;98049.16;;;12.45;74.08
55289;BME280;41154;45.394;5.734;2023-02-15T15:12:50;98044.03;;;12.32;74.04
55289;BME280;41154;45.394;5.734;2023-02-15T15:18:03;98033.84;;;12.46;70.79
55289;BME280;41154;45.394;5.734;2023-02-15T15:31:28;98015.28;;;13.02;70.54
55289;BME280;41154;45.394;5.734;2023-02-15T15:36:54;98019.41;;;12.64;71.42
55289;BME280;41154;45.394;5.734;2023-02-15T15:39:32;98014.75;;;12.47;72.46
55289;BME280;41154;45.394;5.734;2023-02-15T15:42:32;98026.13;;;12.26;71.42
55289;BME280;41154;45.394;5.734;2023-02-15T15:50:58;98035.00;;;11.91;76.98
55289;BME280;41154;45.394;5.734;2023-02-15T15:53:26;98038.88;;;11.95;78.10
55289;BME280;41154;45.394;5.734;2023-02-15T15:56:05;98039.97;;;11.94;78.40
55289;BME280;41154;45.394;5.734;2023-02-15T15:58:33;98043.88;;;11.79;80.91
55289;BME280;41154;45.394;5.734;2023-02-15T16:01:10;98044.31;;;11.76;81.49
55289;BME280;41154;45.394;5.734;2023-02-15T16:03:48;98045.47;;;11.68;81.76
55289;BME280;41154;45.394;5.734;2023-02-15T16:06:25;98045.72;;;11.67;81.82
55289;BME280;41154;45.394;5.734;2023-02-15T16:08:51;98052.50;;;11.69;83.00
55289;BME280;41154;45.394;5.734;2023-02-15T16:11:22;98058.19;;;11.49;84.70
55289;BME280;41154;45.394;5.734;2023-02-15T16:13:49;98052.16;;;11.24;84.52
55289;BME280;41154;45.394;5.734;2023-02-15T16:16:27;98059.19;;;11.06;85.18
55289;BME280;41154;45.394;5.734;2023-02-15T16:18:55;98065.78;;;10.92;85.57
55289;BME280;41154;45.394;5.734;2023-02-15T16:21:29;98067.00;;;10.77;86.59
55289;BME280;41154;45.394;5.734;2023-02-15T16:24:24;98072.38;;;10.59;87.00
55289;BME280;41154;45.394;5.734;2023-02-15T16:29:34;98070.72;;;10.14;89.82
55289;BME280;41154;45.394;5.734;2023-02-15T16:32:02;98068.19;;;10.01;89.89
55289;BME280;41154;45.394;5.734;2023-02-15T16:34:30;98072.28;;;9.78;91.22
55289;BME280;41154;45.394;5.734;2023-02-15T16:37:18;98071.38;;;9.59;92.36
55289;BME280;41154;45.394;5.734;2023-02-15T16:39:46;98071.34;;;9.34;94.07